sensor_id;sensor_type;location;lat;lon;timestamp;P1;durP1;ratioP1;P2;durP2;ratioP2
25525;SDS011;13424;48.424;11.258;2023-11-19T00:00:06;3.53;;;3.22;;
25525;SDS011;13424;48.424;11.258;2023-11-19T00:02:40;3.22;;;2.92;;
25525;SDS011;13424;48.424;11.258;2023-11-19T00:05:07;5.10;;;3.00;;
25525;SDS011;13424;48.424;11.258;2023-11-19T00:07:37;4.35;;;2.90;;
25525;SDS011;13424;48.424;11.258;2023-11-19T00:10:10;5.50;;;3.55;;
25525;SDS011;13424;48.424;11.258;2023-11-19T00:12:42;4.35;;;3.40;;
25525;SDS011;13424;48.424;11.258;2023-11-19T00:15:10;3.25;;;2.95;;
25525;SDS011;13424;48.424;11.258;2023-11-19T00:17:39;5.35;;;3.35;;
25525;SDS011;13424;48.424;11.258;2023-11-19T00:20:17;3.75;;;2.85;;
25525;SDS011;13424;48.424;11.258;2023-11-19T00:22:44;2.95;;;2.65;;
25525;SDS011;13424;48.424;11.258;2023-11-19T00:25:13;4.45;;;3.08;;
25525;SDS011;13424;48.424;11.258;2023-11-19T00:31:21;3.53;;;3.20;;
25525;SDS011;13424;48.424;11.258;2023-11-19T00:33:47;3.03;;;2.72;;
25525;SDS011;13424;48.424;11.258;2023-11-19T00:36:13;3.90;;;3.42;;
25525;SDS011;13424;48.424;11.258;2023-11-19T00:38:39;3.83;;;3.15;;
25525;SDS011;13424;48.424;11.258;2023-11-19T00:41:05;2.97;;;2.53;;
25525;SDS011;13424;48.424;11.258;2023-11-19T00:43:31;2.85;;;2.55;;
25525;SDS011;13424;48.424;11.258;2023-11-19T00:45:57;3.35;;;2.75;;
25525;SDS011;13424;48.424;11.258;2023-11-19T00:48:23;5.53;;;3.03;;
25525;SDS011;13424;48.424;11.258;2023-11-19T00:54:24;2.88;;;2.55;;
25525;SDS011;13424;48.424;11.258;2023-11-19T00:56:52;4.38;;;2.92;;
25525;SDS011;13424;48.424;11.258;2023-11-19T00:59:18;5.00;;;3.25;;
25525;SDS011;13424;48.424;11.258;2023-11-19T01:01:45;3.60;;;2.78;;
25525;SDS011;13424;48.424;11.258;2023-11-19T01:04:14;5.00;;;2.95;;
25525;SDS011;13424;48.424;11.258;2023-11-19T01:06:40;3.25;;;2.63;;
25525;SDS011;13424;48.424;11.258;2023-11-19T01:09:07;3.72;;;2.83;;
25525;SDS011;13424;48.424;11.258;2023-11-19T01:11:34;4.15;;;2.70;;
25525;SDS011;13424;48.424;11.258;2023-11-19T01:17:56;3.13;;;2.53;;
25525;SDS011;13424;48.424;11.258;2023-11-19T01:20:22;3.85;;;3.38;;
25525;SDS011;13424;48.424;11.258;2023-11-19T01:22:48;5.78;;;3.10;;
25525;SDS011;13424;48.424;11.258;2023-11-19T01:25:15;3.03;;;2.72;;
25525;SDS011;13424;48.424;11.258;2023-11-19T01:27:41;3.08;;;2.67;;
25525;SDS011;13424;48.424;11.258;2023-11-19T01:30:07;3.28;;;2.97;;
25525;SDS011;13424;48.424;11.258;2023-11-19T01:32:38;5.22;;;3.60;;
25525;SDS011;13424;48.424;11.258;2023-11-19T01:35:05;5.43;;;2.63;;
25525;SDS011;13424;48.424;11.258;2023-11-19T01:37:33;3.20;;;2.83;;
25525;SDS011;13424;48.424;11.258;2023-11-19T01:40:00;3.42;;;2.63;;
25525;SDS011;13424;48.424;11.258;2023-11-19T01:42:36;4.07;;;3.05;;
25525;SDS011;13424;48.424;11.258;2023-11-19T01:49:31;3.47;;;2.55;;
25525;SDS011;13424;48.424;11.258;2023-11-19T01:51:58;3.25;;;2.70;;
25525;SDS011;13424;48.424;11.258;2023-11-19T01:54:25;3.53;;;2.95;;
25525;SDS011;13424;48.424;11.258;2023-11-19T01:56:52;3.05;;;2.50;;
25525;SDS011;13424;48.424;11.258;2023-11-19T01:59:23;3.20;;;2.90;;
25525;SDS011;13424;48.424;11.258;2023-11-19T02:01:55;6.53;;;2.63;;
25525;SDS011;13424;48.424;11.258;2023-11-19T02:04:22;2.88;;;2.30;;
25525;SDS011;13424;48.424;11.258;2023-11-19T02:06:49;2.05;;;1.95;;
25525;SDS011;13424;48.424;11.258;2023-11-19T02:09:19;3.13;;;2.70;;
25525;SDS011;13424;48.424;11.258;2023-11-19T02:11:45;3.10;;;2.80;;
25525;SDS011;13424;48.424;11.258;2023-11-19T02:14:18;2.58;;;2.38;;
25525;SDS011;13424;48.424;11.258;2023-11-19T02:16:47;2.35;;;2.10;;
25525;SDS011;13424;48.424;11.258;2023-11-19T02:19:14;2.65;;;2.40;;
25525;SDS011;13424;48.424;11.258;2023-11-19T02:21:40;3.10;;;2.15;;
25525;SDS011;13424;48.424;11.258;2023-11-19T02:24:08;2.75;;;2.28;;
25525;SDS011;13424;48.424;11.258;2023-11-19T02:29:36;2.47;;;2.17;;
25525;SDS011;13424;48.424;11.258;2023-11-19T02:32:02;4.10;;;2.90;;
25525;SDS011;13424;48.424;11.258;2023-11-19T02:34:29;2.55;;;2.17;;
25525;SDS011;13424;48.424;11.258;2023-11-19T02:36:55;2.10;;;1.90;;
25525;SDS011;13424;48.424;11.258;2023-11-19T02:39:21;2.28;;;2.08;;
25525;SDS011;13424;48.424;11.258;2023-11-19T02:41:47;3.20;;;2.47;;
25525;SDS011;13424;48.424;11.258;2023-11-19T02:44:17;4.07;;;2.35;;
25525;SDS011;13424;48.424;11.258;2023-11-19T02:46:43;3.25;;;2.95;;
25525;SDS011;13424;48.424;11.258;2023-11-19T02:49:09;2.55;;;2.35;;
25525;SDS011;13424;48.424;11.258;2023-11-19T02:54:52;4.82;;;2.70;;
25525;SDS011;13424;48.424;11.258;2023-11-19T02:57:18;2.42;;;2.20;;
25525;SDS011;13424;48.424;11.258;2023-11-19T02:59:46;3.75;;;2.63;;
25525;SDS011;13424;48.424;11.258;2023-11-19T03:02:12;4.22;;;2.47;;
25525;SDS011;13424;48.424;11.258;2023-11-19T03:04:41;2.80;;;2.50;;
25525;SDS011;13424;48.424;11.258;2023-11-19T03:07:10;3.65;;;3.35;;
25525;SDS011;13424;48.424;11.258;2023-11-19T03:09:37;2.60;;;2.40;;
25525;SDS011;13424;48.424;11.258;2023-11-19T03:12:06;2.88;;;2.58;;
25525;SDS011;13424;48.424;11.258;2023-11-19T03:14:33;2.63;;;2.42;;
25525;SDS011;13424;48.424;11.258;2023-11-19T03:17:00;3.13;;;2.83;;
25525;SDS011;13424;48.424;11.258;2023-11-19T03:19:26;3.15;;;2.60;;
25525;SDS011;13424;48.424;11.258;2023-11-19T03:21:52;2.60;;;2.20;;
25525;SDS011;13424;48.424;11.258;2023-11-19T03:24:19;2.83;;;2.63;;
25525;SDS011;13424;48.424;11.258;2023-11-19T03:26:49;3.85;;;2.20;;
25525;SDS011;13424;48.424;11.258;2023-11-19T03:29:18;2.58;;;2.20;;
25525;SDS011;13424;48.424;11.258;2023-11-19T03:31:44;2.90;;;2.60;;
25525;SDS011;13424;48.424;11.258;2023-11-19T03:34:10;2.60;;;2.40;;
25525;SDS011;13424;48.424;11.258;2023-11-19T03:36:36;2.35;;;2.03;;
25525;SDS011;13424;48.424;11.258;2023-11-19T03:39:02;1.88;;;1.67;;
25525;SDS011;13424;48.424;11.258;2023-11-19T03:41:28;2.40;;;2.20;;
25525;SDS011;13424;48.424;11.258;2023-11-19T03:43:54;2.65;;;1.88;;
25525;SDS011;13424;48.424;11.258;2023-11-19T03:46:21;3.08;;;2.85;;
25525;SDS011;13424;48.424;11.258;2023-11-19T03:48:48;3.13;;;2.03;;
25525;SDS011;13424;48.424;11.258;2023-11-19T03:51:15;2.40;;;2.10;;
25525;SDS011;13424;48.424;11.258;2023-11-19T03:53:51;2.20;;;2.03;;
25525;SDS011;13424;48.424;11.258;2023-11-19T03:56:17;2.78;;;2.58;;
25525;SDS011;13424;48.424;11.258;2023-11-19T03:58:43;2.50;;;2.30;;
25525;SDS011;13424;48.424;11.258;2023-11-19T04:01:12;2.00;;;1.90;;
25525;SDS011;13424;48.424;11.258;2023-11-19T04:03:39;2.25;;;2.05;;
25525;SDS011;13424;48.424;11.258;2023-11-19T04:06:05;2.10;;;1.98;;
25525;SDS011;13424;48.424;11.258;2023-11-19T04:08:31;2.40;;;1.42;;
25525;SDS011;13424;48.424;11.258;2023-11-19T04:10:57;1.70;;;1.60;;
25525;SDS011;13424;48.424;11.258;2023-11-19T04:13:26;2.00;;;1.80;;
25525;SDS011;13424;48.424;11.258;2023-11-19T04:15:52;2.75;;;2.05;;
25525;SDS011;13424;48.424;11.258;2023-11-19T04:18:19;3.65;;;1.92;;
25525;SDS011;13424;48.424;11.258;2023-11-19T04:20:45;2.28;;;1.83;;
25525;SDS011;13424;48.424;11.258;2023-11-19T04:23:11;3.88;;;2.08;;
25525;SDS011;13424;48.424;11.258;2023-11-19T04:25:37;2.30;;;2.10;;
25525;SDS011;13424;48.424;11.258;2023-11-19T04:28:05;2.40;;;2.20;;
25525;SDS011;13424;48.424;11.258;2023-11-19T04:30:32;2.50;;;2.30;;
25525;SDS011;13424;48.424;11.258;2023-11-19T04:32:58;5.80;;;3.17;;
25525;SDS011;13424;48.424;11.258;2023-11-19T04:35:24;2.53;;;2.33;;
25525;SDS011;13424;48.424;11.258;2023-11-19T04:37:51;3.17;;;2.50;;
25525;SDS011;13424;48.424;11.258;2023-11-19T04:40:17;2.85;;;2.38;;
25525;SDS011;13424;48.424;11.258;2023-11-19T04:42:43;2.53;;;1.85;;
25525;SDS011;13424;48.424;11.258;2023-11-19T04:45:10;2.70;;;1.85;;
25525;SDS011;13424;48.424;11.258;2023-11-19T04:47:36;2.20;;;2.00;;
25525;SDS011;13424;48.424;11.258;2023-11-19T04:50:02;2.63;;;2.30;;
25525;SDS011;13424;48.424;11.258;2023-11-19T04:52:29;2.90;;;2.50;;
25525;SDS011;13424;48.424;11.258;2023-11-19T04:54:55;3.35;;;2.70;;
25525;SDS011;13424;48.424;11.258;2023-11-19T04:57:20;2.90;;;2.60;;
25525;SDS011;13424;48.424;11.258;2023-11-19T04:59:47;2.78;;;2.47;;
25525;SDS011;13424;48.424;11.258;2023-11-19T05:02:12;3.13;;;2.83;;
25525;SDS011;13424;48.424;11.258;2023-11-19T05:04:43;3.70;;;2.55;;
25525;SDS011;13424;48.424;11.258;2023-11-19T05:07:10;2.85;;;2.58;;
25525;SDS011;13424;48.424;11.258;2023-11-19T05:09:36;3.17;;;2.83;;
25525;SDS011;13424;48.424;11.258;2023-11-19T05:12:03;3.75;;;3.30;;
25525;SDS011;13424;48.424;11.258;2023-11-19T05:14:29;3.67;;;2.85;;
25525;SDS011;13424;48.424;11.258;2023-11-19T05:16:55;3.75;;;2.75;;
25525;SDS011;13424;48.424;11.258;2023-11-19T05:19:21;3.47;;;3.10;;
25525;SDS011;13424;48.424;11.258;2023-11-19T05:21:46;3.75;;;3.35;;
25525;SDS011;13424;48.424;11.258;2023-11-19T05:24:17;3.95;;;3.38;;
25525;SDS011;13424;48.424;11.258;2023-11-19T05:26:43;2.92;;;2.25;;
25525;SDS011;13424;48.424;11.258;2023-11-19T05:29:12;3.10;;;2.80;;
25525;SDS011;13424;48.424;11.258;2023-11-19T05:31:38;3.45;;;2.05;;
25525;SDS011;13424;48.424;11.258;2023-11-19T05:34:04;2.67;;;2.47;;
25525;SDS011;13424;48.424;11.258;2023-11-19T05:36:30;3.20;;;2.38;;
25525;SDS011;13424;48.424;11.258;2023-11-19T05:38:56;3.35;;;2.50;;
25525;SDS011;13424;48.424;11.258;2023-11-19T05:41:22;2.55;;;2.35;;
25525;SDS011;13424;48.424;11.258;2023-11-19T05:43:51;2.97;;;2.60;;
25525;SDS011;13424;48.424;11.258;2023-11-19T05:46:17;2.72;;;2.47;;
25525;SDS011;13424;48.424;11.258;2023-11-19T05:48:43;2.63;;;2.42;;
25525;SDS011;13424;48.424;11.258;2023-11-19T05:51:10;3.05;;;2.85;;
25525;SDS011;13424;48.424;11.258;2023-11-19T05:53:36;5.13;;;2.25;;
25525;SDS011;13424;48.424;11.258;2023-11-19T05:56:02;3.30;;;2.47;;
25525;SDS011;13424;48.424;11.258;2023-11-19T05:58:29;2.40;;;2.20;;
25525;SDS011;13424;48.424;11.258;2023-11-19T06:00:56;2.70;;;2.30;;
25525;SDS011;13424;48.424;11.258;2023-11-19T06:03:26;4.25;;;3.00;;
25525;SDS011;13424;48.424;11.258;2023-11-19T06:05:52;3.30;;;2.67;;
25525;SDS011;13424;48.424;11.258;2023-11-19T06:08:20;3.20;;;2.90;;
25525;SDS011;13424;48.424;11.258;2023-11-19T06:10:46;3.60;;;2.60;;
25525;SDS011;13424;48.424;11.258;2023-11-19T06:13:13;2.80;;;2.60;;
25525;SDS011;13424;48.424;11.258;2023-11-19T06:15:41;3.40;;;2.60;;
25525;SDS011;13424;48.424;11.258;2023-11-19T06:18:08;2.67;;;2.33;;
25525;SDS011;13424;48.424;11.258;2023-11-19T06:20:35;3.05;;;2.85;;
25525;SDS011;13424;48.424;11.258;2023-11-19T06:23:01;3.15;;;2.85;;
25525;SDS011;13424;48.424;11.258;2023-11-19T06:25:27;3.50;;;2.72;;
25525;SDS011;13424;48.424;11.258;2023-11-19T06:27:53;2.67;;;2.33;;
25525;SDS011;13424;48.424;11.258;2023-11-19T06:30:19;3.28;;;2.97;;
25525;SDS011;13424;48.424;11.258;2023-11-19T06:32:48;2.60;;;2.40;;
25525;SDS011;13424;48.424;11.258;2023-11-19T06:35:20;8.40;;;2.83;;
25525;SDS011;13424;48.424;11.258;2023-11-19T06:37:46;3.55;;;2.50;;
25525;SDS011;13424;48.424;11.258;2023-11-19T06:40:12;2.75;;;2.55;;
25525;SDS011;13424;48.424;11.258;2023-11-19T06:42:41;3.03;;;2.72;;
25525;SDS011;13424;48.424;11.258;2023-11-19T06:45:06;2.92;;;2.60;;
25525;SDS011;13424;48.424;11.258;2023-11-19T06:47:34;2.80;;;2.55;;
25525;SDS011;13424;48.424;11.258;2023-11-19T06:50:00;2.63;;;2.40;;
25525;SDS011;13424;48.424;11.258;2023-11-19T06:52:26;3.10;;;2.80;;
25525;SDS011;13424;48.424;11.258;2023-11-19T06:54:52;3.05;;;2.67;;
25525;SDS011;13424;48.424;11.258;2023-11-19T06:57:18;2.40;;;2.20;;
25525;SDS011;13424;48.424;11.258;2023-11-19T06:59:45;3.42;;;2.80;;
25525;SDS011;13424;48.424;11.258;2023-11-19T07:02:11;3.50;;;2.53;;
25525;SDS011;13424;48.424;11.258;2023-11-19T07:04:37;2.83;;;2.63;;
25525;SDS011;13424;48.424;11.258;2023-11-19T07:07:03;2.90;;;2.53;;
25525;SDS011;13424;48.424;11.258;2023-11-19T07:09:30;2.60;;;2.40;;
25525;SDS011;13424;48.424;11.258;2023-11-19T07:11:57;2.22;;;2.03;;
25525;SDS011;13424;48.424;11.258;2023-11-19T07:14:37;2.33;;;2.20;;
25525;SDS011;13424;48.424;11.258;2023-11-19T07:17:03;2.35;;;2.15;;
25525;SDS011;13424;48.424;11.258;2023-11-19T07:19:29;2.88;;;2.30;;
25525;SDS011;13424;48.424;11.258;2023-11-19T07:21:55;3.15;;;2.10;;
25525;SDS011;13424;48.424;11.258;2023-11-19T07:24:21;2.90;;;2.55;;
25525;SDS011;13424;48.424;11.258;2023-11-19T07:26:47;2.22;;;2.00;;
25525;SDS011;13424;48.424;11.258;2023-11-19T07:29:14;2.10;;;1.98;;
25525;SDS011;13424;48.424;11.258;2023-11-19T07:31:42;2.20;;;1.80;;
25525;SDS011;13424;48.424;11.258;2023-11-19T07:34:10;2.67;;;2.05;;
25525;SDS011;13424;48.424;11.258;2023-11-19T07:36:38;3.33;;;2.50;;
25525;SDS011;13424;48.424;11.258;2023-11-19T07:39:05;4.13;;;2.13;;
25525;SDS011;13424;48.424;11.258;2023-11-19T07:41:32;2.38;;;2.17;;
25525;SDS011;13424;48.424;11.258;2023-11-19T07:43:58;3.22;;;1.88;;
25525;SDS011;13424;48.424;11.258;2023-11-19T07:46:24;1.95;;;1.85;;
25525;SDS011;13424;48.424;11.258;2023-11-19T07:48:50;2.20;;;2.00;;
25525;SDS011;13424;48.424;11.258;2023-11-19T07:51:17;2.42;;;2.20;;
25525;SDS011;13424;48.424;11.258;2023-11-19T07:53:43;1.80;;;1.38;;
25525;SDS011;13424;48.424;11.258;2023-11-19T07:59:41;2.33;;;1.88;;
25525;SDS011;13424;48.424;11.258;2023-11-19T08:02:07;3.03;;;1.77;;
25525;SDS011;13424;48.424;11.258;2023-11-19T08:04:33;2.00;;;1.80;;
25525;SDS011;13424;48.424;11.258;2023-11-19T08:06:59;1.50;;;1.40;;
25525;SDS011;13424;48.424;11.258;2023-11-19T08:09:25;1.85;;;1.70;;
25525;SDS011;13424;48.424;11.258;2023-11-19T08:11:52;1.73;;;1.63;;
25525;SDS011;13424;48.424;11.258;2023-11-19T08:14:18;1.60;;;1.25;;
25525;SDS011;13424;48.424;11.258;2023-11-19T08:16:44;1.60;;;1.50;;
25525;SDS011;13424;48.424;11.258;2023-11-19T08:19:10;3.30;;;1.35;;
25525;SDS011;13424;48.424;11.258;2023-11-19T08:21:36;1.67;;;1.25;;
25525;SDS011;13424;48.424;11.258;2023-11-19T08:24:14;1.33;;;1.20;;
25525;SDS011;13424;48.424;11.258;2023-11-19T08:26:40;1.15;;;1.02;;
25525;SDS011;13424;48.424;11.258;2023-11-19T08:29:06;1.33;;;1.23;;
25525;SDS011;13424;48.424;11.258;2023-11-19T08:31:32;1.45;;;1.27;;
25525;SDS011;13424;48.424;11.258;2023-11-19T08:33:58;1.70;;;1.35;;
25525;SDS011;13424;48.424;11.258;2023-11-19T08:36:24;3.13;;;0.98;;
25525;SDS011;13424;48.424;11.258;2023-11-19T08:38:50;1.42;;;1.02;;
25525;SDS011;13424;48.424;11.258;2023-11-19T08:41:17;1.23;;;1.13;;
25525;SDS011;13424;48.424;11.258;2023-11-19T08:43:44;1.38;;;1.27;;
25525;SDS011;13424;48.424;11.258;2023-11-19T08:46:11;1.42;;;1.33;;
25525;SDS011;13424;48.424;11.258;2023-11-19T08:48:38;1.83;;;1.17;;
25525;SDS011;13424;48.424;11.258;2023-11-19T08:51:04;1.63;;;0.95;;
25525;SDS011;13424;48.424;11.258;2023-11-19T08:53:31;1.10;;;1.00;;
25525;SDS011;13424;48.424;11.258;2023-11-19T08:55:57;1.33;;;1.20;;
25525;SDS011;13424;48.424;11.258;2023-11-19T08:58:22;2.55;;;1.08;;
25525;SDS011;13424;48.424;11.258;2023-11-19T09:00:48;1.10;;;1.02;;
25525;SDS011;13424;48.424;11.258;2023-11-19T09:03:14;2.50;;;1.38;;
25525;SDS011;13424;48.424;11.258;2023-11-19T09:05:40;1.42;;;1.33;;
25525;SDS011;13424;48.424;11.258;2023-11-19T09:08:06;1.60;;;1.50;;
25525;SDS011;13424;48.424;11.258;2023-11-19T09:10:33;1.75;;;1.40;;
25525;SDS011;13424;48.424;11.258;2023-11-19T09:12:59;1.60;;;1.40;;
25525;SDS011;13424;48.424;11.258;2023-11-19T09:15:28;3.00;;;1.75;;
25525;SDS011;13424;48.424;11.258;2023-11-19T09:17:54;2.58;;;1.30;;
25525;SDS011;13424;48.424;11.258;2023-11-19T09:20:20;2.15;;;1.20;;
25525;SDS011;13424;48.424;11.258;2023-11-19T09:22:46;3.40;;;1.30;;
25525;SDS011;13424;48.424;11.258;2023-11-19T09:25:12;1.40;;;1.30;;
25525;SDS011;13424;48.424;11.258;2023-11-19T09:27:42;1.15;;;1.05;;
25525;SDS011;13424;48.424;11.258;2023-11-19T09:30:11;1.60;;;1.40;;
25525;SDS011;13424;48.424;11.258;2023-11-19T09:32:38;2.35;;;1.23;;
25525;SDS011;13424;48.424;11.258;2023-11-19T09:35:04;1.20;;;1.10;;
25525;SDS011;13424;48.424;11.258;2023-11-19T09:37:32;1.38;;;1.27;;
25525;SDS011;13424;48.424;11.258;2023-11-19T09:39:58;1.15;;;1.05;;
25525;SDS011;13424;48.424;11.258;2023-11-19T09:42:24;0.80;;;0.80;;
25525;SDS011;13424;48.424;11.258;2023-11-19T09:44:50;1.48;;;1.05;;
25525;SDS011;13424;48.424;11.258;2023-11-19T09:47:17;1.08;;;0.98;;
25525;SDS011;13424;48.424;11.258;2023-11-19T09:49:45;1.40;;;1.30;;
25525;SDS011;13424;48.424;11.258;2023-11-19T09:52:13;1.00;;;0.90;;
25525;SDS011;13424;48.424;11.258;2023-11-19T09:54:39;1.50;;;1.00;;
25525;SDS011;13424;48.424;11.258;2023-11-19T09:57:05;1.05;;;0.90;;
25525;SDS011;13424;48.424;11.258;2023-11-19T09:59:34;1.00;;;1.00;;
25525;SDS011;13424;48.424;11.258;2023-11-19T10:02:02;1.45;;;1.25;;
25525;SDS011;13424;48.424;11.258;2023-11-19T10:04:29;1.20;;;1.10;;
25525;SDS011;13424;48.424;11.258;2023-11-19T10:06:58;1.45;;;0.98;;
25525;SDS011;13424;48.424;11.258;2023-11-19T10:09:24;1.98;;;0.85;;
25525;SDS011;13424;48.424;11.258;2023-11-19T10:11:50;1.20;;;0.95;;
25525;SDS011;13424;48.424;11.258;2023-11-19T10:14:16;2.55;;;0.95;;
25525;SDS011;13424;48.424;11.258;2023-11-19T10:16:48;1.00;;;0.90;;
25525;SDS011;13424;48.424;11.258;2023-11-19T10:19:20;1.00;;;0.90;;
25525;SDS011;13424;48.424;11.258;2023-11-19T10:21:46;1.83;;;0.65;;
25525;SDS011;13424;48.424;11.258;2023-11-19T10:24:13;1.08;;;0.98;;
25525;SDS011;13424;48.424;11.258;2023-11-19T10:26:39;2.17;;;1.00;;
25525;SDS011;13424;48.424;11.258;2023-11-19T10:29:07;1.83;;;0.80;;
25525;SDS011;13424;48.424;11.258;2023-11-19T10:31:33;1.30;;;1.20;;
25525;SDS011;13424;48.424;11.258;2023-11-19T10:33:59;1.08;;;0.98;;
25525;SDS011;13424;48.424;11.258;2023-11-19T10:36:38;1.75;;;0.90;;
25525;SDS011;13424;48.424;11.258;2023-11-19T10:39:33;0.95;;;0.95;;
25525;SDS011;13424;48.424;11.258;2023-11-19T10:42:21;1.17;;;1.05;;
25525;SDS011;13424;48.424;11.258;2023-11-19T10:44:47;0.98;;;0.70;;
25525;SDS011;13424;48.424;11.258;2023-11-19T10:47:14;2.13;;;1.02;;
25525;SDS011;13424;48.424;11.258;2023-11-19T10:52:57;3.00;;;1.02;;
25525;SDS011;13424;48.424;11.258;2023-11-19T10:55:29;0.85;;;0.80;;
25525;SDS011;13424;48.424;11.258;2023-11-19T10:58:02;1.67;;;0.70;;
25525;SDS011;13424;48.424;11.258;2023-11-19T11:00:43;0.77;;;0.57;;
25525;SDS011;13424;48.424;11.258;2023-11-19T11:03:26;0.80;;;0.50;;
25525;SDS011;13424;48.424;11.258;2023-11-19T11:06:00;1.02;;;0.85;;
25525;SDS011;13424;48.424;11.258;2023-11-19T11:08:29;1.88;;;1.00;;
25525;SDS011;13424;48.424;11.258;2023-11-19T11:10:56;1.60;;;0.90;;
25525;SDS011;13424;48.424;11.258;2023-11-19T11:13:25;0.98;;;0.90;;
25525;SDS011;13424;48.424;11.258;2023-11-19T11:18:25;1.00;;;0.90;;
25525;SDS011;13424;48.424;11.258;2023-11-19T11:30:44;1.50;;;0.90;;
25525;SDS011;13424;48.424;11.258;2023-11-19T11:33:46;1.48;;;0.98;;
25525;SDS011;13424;48.424;11.258;2023-11-19T11:36:23;1.35;;;1.00;;
25525;SDS011;13424;48.424;11.258;2023-11-19T11:38:51;1.17;;;0.93;;
25525;SDS011;13424;48.424;11.258;2023-11-19T11:43:51;1.13;;;1.02;;
25525;SDS011;13424;48.424;11.258;2023-11-19T11:49:07;0.65;;;0.65;;
25525;SDS011;13424;48.424;11.258;2023-11-19T11:54:11;1.42;;;1.33;;
25525;SDS011;13424;48.424;11.258;2023-11-19T11:57:02;3.55;;;0.60;;
25525;SDS011;13424;48.424;11.258;2023-11-19T12:02:08;1.33;;;0.50;;
25525;SDS011;13424;48.424;11.258;2023-11-19T12:05:01;0.70;;;0.47;;
25525;SDS011;13424;48.424;11.258;2023-11-19T12:07:30;0.82;;;0.65;;
25525;SDS011;13424;48.424;11.258;2023-11-19T12:10:22;0.70;;;0.70;;
25525;SDS011;13424;48.424;11.258;2023-11-19T12:12:52;2.00;;;0.60;;
25525;SDS011;13424;48.424;11.258;2023-11-19T12:15:24;1.25;;;0.63;;
25525;SDS011;13424;48.424;11.258;2023-11-19T12:17:53;1.20;;;0.70;;
25525;SDS011;13424;48.424;11.258;2023-11-19T12:20:48;1.73;;;0.82;;
25525;SDS011;13424;48.424;11.258;2023-11-19T12:23:14;1.27;;;0.73;;
25525;SDS011;13424;48.424;11.258;2023-11-19T12:25:41;2.45;;;0.88;;
25525;SDS011;13424;48.424;11.258;2023-11-19T12:28:12;0.70;;;0.60;;
25525;SDS011;13424;48.424;11.258;2023-11-19T12:33:09;0.60;;;0.60;;
25525;SDS011;13424;48.424;11.258;2023-11-19T12:38:30;1.00;;;0.70;;
25525;SDS011;13424;48.424;11.258;2023-11-19T12:41:06;0.80;;;0.70;;
25525;SDS011;13424;48.424;11.258;2023-11-19T12:43:36;0.93;;;0.73;;
25525;SDS011;13424;48.424;11.258;2023-11-19T12:46:23;0.77;;;0.50;;
25525;SDS011;13424;48.424;11.258;2023-11-19T12:48:50;0.90;;;0.77;;
25525;SDS011;13424;48.424;11.258;2023-11-19T12:51:17;1.70;;;0.63;;
25525;SDS011;13424;48.424;11.258;2023-11-19T12:53:52;1.05;;;0.77;;
25525;SDS011;13424;48.424;11.258;2023-11-19T12:56:20;5.25;;;0.93;;
25525;SDS011;13424;48.424;11.258;2023-11-19T12:58:47;0.95;;;0.70;;
25525;SDS011;13424;48.424;11.258;2023-11-19T13:01:18;0.40;;;0.40;;
25525;SDS011;13424;48.424;11.258;2023-11-19T13:03:46;2.15;;;0.82;;
25525;SDS011;13424;48.424;11.258;2023-11-19T13:06:14;0.80;;;0.63;;
25525;SDS011;13424;48.424;11.258;2023-11-19T13:08:47;1.30;;;0.60;;
25525;SDS011;13424;48.424;11.258;2023-11-19T13:11:33;1.15;;;0.80;;
25525;SDS011;13424;48.424;11.258;2023-11-19T13:14:04;0.60;;;0.60;;
25525;SDS011;13424;48.424;11.258;2023-11-19T13:20:24;0.60;;;0.60;;
25525;SDS011;13424;48.424;11.258;2023-11-19T13:23:00;0.63;;;0.63;;
25525;SDS011;13424;48.424;11.258;2023-11-19T13:25:28;0.75;;;0.60;;
25525;SDS011;13424;48.424;11.258;2023-11-19T13:27:56;0.80;;;0.70;;
25525;SDS011;13424;48.424;11.258;2023-11-19T13:30:23;0.95;;;0.63;;
25525;SDS011;13424;48.424;11.258;2023-11-19T13:32:51;1.10;;;0.82;;
25525;SDS011;13424;48.424;11.258;2023-11-19T13:35:18;0.52;;;0.52;;
25525;SDS011;13424;48.424;11.258;2023-11-19T13:37:45;1.17;;;0.73;;
25525;SDS011;13424;48.424;11.258;2023-11-19T13:40:11;0.50;;;0.50;;
25525;SDS011;13424;48.424;11.258;2023-11-19T13:42:41;0.43;;;0.43;;
25525;SDS011;13424;48.424;11.258;2023-11-19T13:45:11;1.27;;;1.02;;
25525;SDS011;13424;48.424;11.258;2023-11-19T13:51:04;0.90;;;0.90;;
25525;SDS011;13424;48.424;11.258;2023-11-19T13:53:31;0.70;;;0.70;;
25525;SDS011;13424;48.424;11.258;2023-11-19T13:55:57;1.27;;;0.80;;
25525;SDS011;13424;48.424;11.258;2023-11-19T13:58:23;1.63;;;0.90;;
25525;SDS011;13424;48.424;11.258;2023-11-19T14:00:49;1.33;;;0.90;;
25525;SDS011;13424;48.424;11.258;2023-11-19T14:03:15;1.30;;;0.85;;
25525;SDS011;13424;48.424;11.258;2023-11-19T14:05:42;4.28;;;0.95;;
25525;SDS011;13424;48.424;11.258;2023-11-19T14:08:08;0.90;;;0.90;;
25525;SDS011;13424;48.424;11.258;2023-11-19T14:10:40;0.80;;;0.80;;
25525;SDS011;13424;48.424;11.258;2023-11-19T14:13:06;2.70;;;0.73;;
25525;SDS011;13424;48.424;11.258;2023-11-19T14:15:33;0.85;;;0.82;;
25525;SDS011;13424;48.424;11.258;2023-11-19T14:18:00;0.70;;;0.70;;
25525;SDS011;13424;48.424;11.258;2023-11-19T14:20:27;0.70;;;0.68;;
25525;SDS011;13424;48.424;11.258;2023-11-19T14:22:53;0.70;;;0.70;;
25525;SDS011;13424;48.424;11.258;2023-11-19T14:25:19;0.60;;;0.60;;
25525;SDS011;13424;48.424;11.258;2023-11-19T14:27:46;1.75;;;0.90;;
25525;SDS011;13424;48.424;11.258;2023-11-19T14:30:13;1.38;;;0.70;;
25525;SDS011;13424;48.424;11.258;2023-11-19T14:32:40;1.67;;;0.63;;
25525;SDS011;13424;48.424;11.258;2023-11-19T14:38:25;0.73;;;0.73;;
25525;SDS011;13424;48.424;11.258;2023-11-19T14:40:51;1.15;;;0.82;;
25525;SDS011;13424;48.424;11.258;2023-11-19T14:43:18;1.48;;;0.80;;
25525;SDS011;13424;48.424;11.258;2023-11-19T14:45:44;0.80;;;0.80;;
25525;SDS011;13424;48.424;11.258;2023-11-19T14:48:09;0.70;;;0.60;;
25525;SDS011;13424;48.424;11.258;2023-11-19T14:50:35;1.05;;;0.98;;
25525;SDS011;13424;48.424;11.258;2023-11-19T14:53:01;1.65;;;0.70;;
25525;SDS011;13424;48.424;11.258;2023-11-19T14:55:29;1.00;;;0.90;;
25525;SDS011;13424;48.424;11.258;2023-11-19T14:57:55;2.47;;;1.15;;
25525;SDS011;13424;48.424;11.258;2023-11-19T15:00:22;0.70;;;0.70;;
25525;SDS011;13424;48.424;11.258;2023-11-19T15:02:49;1.95;;;1.08;;
25525;SDS011;13424;48.424;11.258;2023-11-19T15:05:15;2.72;;;0.82;;
25525;SDS011;13424;48.424;11.258;2023-11-19T15:07:41;1.55;;;1.08;;
25525;SDS011;13424;48.424;11.258;2023-11-19T15:10:16;0.70;;;0.70;;
25525;SDS011;13424;48.424;11.258;2023-11-19T15:12:42;1.13;;;0.80;;
25525;SDS011;13424;48.424;11.258;2023-11-19T15:15:08;0.82;;;0.57;;
25525;SDS011;13424;48.424;11.258;2023-11-19T15:17:35;2.03;;;0.80;;
25525;SDS011;13424;48.424;11.258;2023-11-19T15:20:03;0.80;;;0.80;;
25525;SDS011;13424;48.424;11.258;2023-11-19T15:22:30;3.63;;;0.80;;
25525;SDS011;13424;48.424;11.258;2023-11-19T15:24:56;1.20;;;0.80;;
25525;SDS011;13424;48.424;11.258;2023-11-19T15:27:23;1.10;;;1.00;;
25525;SDS011;13424;48.424;11.258;2023-11-19T15:29:49;2.40;;;0.85;;
25525;SDS011;13424;48.424;11.258;2023-11-19T15:32:15;1.13;;;0.93;;
25525;SDS011;13424;48.424;11.258;2023-11-19T15:34:41;0.80;;;0.68;;
25525;SDS011;13424;48.424;11.258;2023-11-19T15:37:08;0.90;;;0.80;;
25525;SDS011;13424;48.424;11.258;2023-11-19T15:39:34;1.40;;;1.02;;
25525;SDS011;13424;48.424;11.258;2023-11-19T15:42:02;0.85;;;0.82;;
25525;SDS011;13424;48.424;11.258;2023-11-19T15:44:28;0.73;;;0.70;;